sensor_id;sensor_type;location;lat;lon;timestamp;temperature;humidity
17599;DHT22;8918;52.092;5.232;2022-12-07T00:01:25;3.90;99.90
17599;DHT22;8918;52.092;5.232;2022-12-07T00:03:52;3.90;99.90
17599;DHT22;8918;52.092;5.232;2022-12-07T00:06:19;4.00;99.90
17599;DHT22;8918;52.092;5.232;2022-12-07T00:08:46;4.10;99.90
17599;DHT22;8918;52.092;5.232;2022-12-07T00:11:17;4.00;99.90
17599;DHT22;8918;52.092;5.232;2022-12-07T00:13:43;4.10;99.90
17599;DHT22;8918;52.092;5.232;2022-12-07T00:16:11;4.10;99.90
17599;DHT22;8918;52.092;5.232;2022-12-07T00:18:38;4.20;99.90
17599;DHT22;8918;52.092;5.232;2022-12-07T00:21:26;4.30;99.90
17599;DHT22;8918;52.092;5.232;2022-12-07T00:23:54;4.30;99.90
17599;DHT22;8918;52.092;5.232;2022-12-07T00:26:23;4.30;99.90
17599;DHT22;8918;52.092;5.232;2022-12-07T00:28:54;4.30;99.90
17599;DHT22;8918;52.092;5.232;2022-12-07T00:31:22;4.30;99.90
17599;DHT22;8918;52.092;5.232;2022-12-07T00:33:50;4.20;99.90
17599;DHT22;8918;52.092;5.232;2022-12-07T00:36:18;4.20;99.90
17599;DHT22;8918;52.092;5.232;2022-12-07T00:38:44;4.20;99.90
17599;DHT22;8918;52.092;5.232;2022-12-07T00:43:37;4.20;99.90
17599;DHT22;8918;52.092;5.232;2022-12-07T00:46:03;4.10;99.90
17599;DHT22;8918;52.092;5.232;2022-12-07T00:48:29;4.00;99.90
17599;DHT22;8918;52.092;5.232;2022-12-07T00:50:54;4.00;99.90
17599;DHT22;8918;52.092;5.232;2022-12-07T00:53:20;4.00;99.90
17599;DHT22;8918;52.092;5.232;2022-12-07T00:55:46;3.90;99.90
17599;DHT22;8918;52.092;5.232;2022-12-07T00:58:11;3.80;99.90
17599;DHT22;8918;52.092;5.232;2022-12-07T01:00:39;3.80;99.90
17599;DHT22;8918;52.092;5.232;2022-12-07T01:03:06;3.80;99.90
17599;DHT22;8918;52.092;5.232;2022-12-07T01:05:32;3.70;99.90
17599;DHT22;8918;52.092;5.232;2022-12-07T01:07:58;3.60;99.90
17599;DHT22;8918;52.092;5.232;2022-12-07T01:10:24;3.60;99.90
17599;DHT22;8918;52.092;5.232;2022-12-07T01:12:50;3.50;99.90
17599;DHT22;8918;52.092;5.232;2022-12-07T01:15:16;3.50;99.90
17599;DHT22;8918;52.092;5.232;2022-12-07T01:17:42;3.50;99.90
17599;DHT22;8918;52.092;5.232;2022-12-07T01:20:08;3.50;99.90
17599;DHT22;8918;52.092;5.232;2022-12-07T01:22:38;3.50;99.90
17599;DHT22;8918;52.092;5.232;2022-12-07T01:25:05;3.50;99.90
17599;DHT22;8918;52.092;5.232;2022-12-07T01:27:32;3.40;99.90
17599;DHT22;8918;52.092;5.232;2022-12-07T01:29:57;3.40;99.90
17599;DHT22;8918;52.092;5.232;2022-12-07T01:32:23;3.40;99.90
17599;DHT22;8918;52.092;5.232;2022-12-07T01:34:48;3.40;99.90
17599;DHT22;8918;52.092;5.232;2022-12-07T01:37:14;3.40;99.90
17599;DHT22;8918;52.092;5.232;2022-12-07T01:39:40;3.40;99.90
17599;DHT22;8918;52.092;5.232;2022-12-07T01:42:12;3.30;99.90
17599;DHT22;8918;52.092;5.232;2022-12-07T01:47:42;3.30;99.90
17599;DHT22;8918;52.092;5.232;2022-12-07T01:50:09;3.30;99.90
17599;DHT22;8918;52.092;5.232;2022-12-07T01:52:38;3.20;99.90
17599;DHT22;8918;52.092;5.232;2022-12-07T01:55:07;3.10;99.90
17599;DHT22;8918;52.092;5.232;2022-12-07T01:57:36;3.10;99.90
17599;DHT22;8918;52.092;5.232;2022-12-07T02:00:06;3.10;99.90
17599;DHT22;8918;52.092;5.232;2022-12-07T02:02:39;3.10;99.90
17599;DHT22;8918;52.092;5.232;2022-12-07T02:05:07;3.10;99.90
17599;DHT22;8918;52.092;5.232;2022-12-07T02:07:36;3.10;99.90
17599;DHT22;8918;52.092;5.232;2022-12-07T02:10:18;3.20;99.90
17599;DHT22;8918;52.092;5.232;2022-12-07T02:12:50;3.30;99.90
17599;DHT22;8918;52.092;5.232;2022-12-07T02:15:18;3.30;99.90
17599;DHT22;8918;52.092;5.232;2022-12-07T02:17:58;3.40;99.90
17599;DHT22;8918;52.092;5.232;2022-12-07T02:20:53;3.50;99.90
17599;DHT22;8918;52.092;5.232;2022-12-07T02:34:51;3.80;99.90
17599;DHT22;8918;52.092;5.232;2022-12-07T02:37:23;3.90;99.90
17599;DHT22;8918;52.092;5.232;2022-12-07T02:39:59;3.90;99.90
17599;DHT22;8918;52.092;5.232;2022-12-07T02:42:34;3.90;99.90
17599;DHT22;8918;52.092;5.232;2022-12-07T02:45:03;3.90;99.90
17599;DHT22;8918;52.092;5.232;2022-12-07T02:47:30;4.00;99.90
17599;DHT22;8918;52.092;5.232;2022-12-07T02:49:57;4.00;99.90
17599;DHT22;8918;52.092;5.232;2022-12-07T02:52:22;3.90;99.90
17599;DHT22;8918;52.092;5.232;2022-12-07T02:54:50;3.90;99.90
17599;DHT22;8918;52.092;5.232;2022-12-07T02:57:55;3.80;99.90
17599;DHT22;8918;52.092;5.232;2022-12-07T03:00:22;3.80;99.90
17599;DHT22;8918;52.092;5.232;2022-12-07T03:03:00;3.70;99.90
17599;DHT22;8918;52.092;5.232;2022-12-07T03:08:22;3.60;99.90
17599;DHT22;8918;52.092;5.232;2022-12-07T03:16:22;3.60;99.90
17599;DHT22;8918;52.092;5.232;2022-12-07T03:19:03;3.70;99.90
17599;DHT22;8918;52.092;5.232;2022-12-07T03:21:38;3.70;99.90
17599;DHT22;8918;52.092;5.232;2022-12-07T03:24:09;3.70;99.90
17599;DHT22;8918;52.092;5.232;2022-12-07T03:26:40;3.70;99.90
17599;DHT22;8918;52.092;5.232;2022-12-07T03:29:34;3.70;99.90
17599;DHT22;8918;52.092;5.232;2022-12-07T03:32:06;3.70;99.90
17599;DHT22;8918;52.092;5.232;2022-12-07T03:34:44;3.60;99.90
17599;DHT22;8918;52.092;5.232;2022-12-07T03:37:18;3.60;99.90
17599;DHT22;8918;52.092;5.232;2022-12-07T03:42:48;3.40;99.90
17599;DHT22;8918;52.092;5.232;2022-12-07T03:45:17;3.40;99.90
17599;DHT22;8918;52.092;5.232;2022-12-07T03:47:56;3.30;99.90
17599;DHT22;8918;52.092;5.232;2022-12-07T03:50:52;3.20;99.90
17599;DHT22;8918;52.092;5.232;2022-12-07T03:53:29;3.20;99.90
17599;DHT22;8918;52.092;5.232;2022-12-07T03:55:59;3.20;99.90
17599;DHT22;8918;52.092;5.232;2022-12-07T03:58:26;3.10;99.90
17599;DHT22;8918;52.092;5.232;2022-12-07T04:00:52;3.20;99.90
17599;DHT22;8918;52.092;5.232;2022-12-07T04:03:18;3.20;99.90
17599;DHT22;8918;52.092;5.232;2022-12-07T04:05:44;3.20;99.90
17599;DHT22;8918;52.092;5.232;2022-12-07T04:08:10;3.20;99.90
17599;DHT22;8918;52.092;5.232;2022-12-07T04:10:35;3.20;99.90
17599;DHT22;8918;52.092;5.232;2022-12-07T04:13:01;3.10;99.90
17599;DHT22;8918;52.092;5.232;2022-12-07T04:15:27;3.00;99.90
17599;DHT22;8918;52.092;5.232;2022-12-07T04:17:52;3.00;99.90
17599;DHT22;8918;52.092;5.232;2022-12-07T04:20:19;3.00;99.90
17599;DHT22;8918;52.092;5.232;2022-12-07T04:22:44;3.00;99.90
17599;DHT22;8918;52.092;5.232;2022-12-07T04:25:10;2.90;99.90
17599;DHT22;8918;52.092;5.232;2022-12-07T04:27:35;2.90;99.90
17599;DHT22;8918;52.092;5.232;2022-12-07T04:30:01;2.90;99.90
17599;DHT22;8918;52.092;5.232;2022-12-07T04:32:27;2.90;99.90
17599;DHT22;8918;52.092;5.232;2022-12-07T04:34:53;2.80;99.90
17599;DHT22;8918;52.092;5.232;2022-12-07T04:37:18;2.80;99.90
17599;DHT22;8918;52.092;5.232;2022-12-07T04:39:44;2.80;99.90
17599;DHT22;8918;52.092;5.232;2022-12-07T04:42:10;2.80;99.90
17599;DHT22;8918;52.092;5.232;2022-12-07T04:44:37;2.90;99.90
17599;DHT22;8918;52.092;5.232;2022-12-07T04:47:03;2.90;99.90
17599;DHT22;8918;52.092;5.232;2022-12-07T04:49:28;3.00;99.90
17599;DHT22;8918;52.092;5.232;2022-12-07T04:51:54;3.10;99.90
17599;DHT22;8918;52.092;5.232;2022-12-07T04:54:20;3.10;99.90
17599;DHT22;8918;52.092;5.232;2022-12-07T04:56:46;3.10;99.90
17599;DHT22;8918;52.092;5.232;2022-12-07T04:59:13;3.20;99.90
17599;DHT22;8918;52.092;5.232;2022-12-07T05:01:39;3.20;99.90
17599;DHT22;8918;52.092;5.232;2022-12-07T05:04:05;3.20;99.90
17599;DHT22;8918;52.092;5.232;2022-12-07T05:06:30;3.20;99.90
17599;DHT22;8918;52.092;5.232;2022-12-07T05:08:56;3.10;99.90
17599;DHT22;8918;52.092;5.232;2022-12-07T05:11:22;3.10;99.90
17599;DHT22;8918;52.092;5.232;2022-12-07T05:14:18;3.00;99.90
17599;DHT22;8918;52.092;5.232;2022-12-07T05:16:45;3.00;99.90
17599;DHT22;8918;52.092;5.232;2022-12-07T05:19:11;2.90;99.90
17599;DHT22;8918;52.092;5.232;2022-12-07T05:21:38;2.90;99.90
17599;DHT22;8918;52.092;5.232;2022-12-07T05:24:04;2.90;99.90
17599;DHT22;8918;52.092;5.232;2022-12-07T05:26:30;3.00;99.90
17599;DHT22;8918;52.092;5.232;2022-12-07T05:28:56;2.90;99.90
17599;DHT22;8918;52.092;5.232;2022-12-07T05:31:23;2.90;99.90
17599;DHT22;8918;52.092;5.232;2022-12-07T05:33:49;2.90;99.90
17599;DHT22;8918;52.092;5.232;2022-12-07T05:36:14;2.90;99.90
17599;DHT22;8918;52.092;5.232;2022-12-07T05:38:40;2.90;99.90
17599;DHT22;8918;52.092;5.232;2022-12-07T05:41:06;2.80;99.90
17599;DHT22;8918;52.092;5.232;2022-12-07T05:43:33;2.80;99.90
17599;DHT22;8918;52.092;5.232;2022-12-07T05:45:59;2.80;99.90
17599;DHT22;8918;52.092;5.232;2022-12-07T05:48:25;2.70;99.90
17599;DHT22;8918;52.092;5.232;2022-12-07T05:50:51;2.60;99.90
17599;DHT22;8918;52.092;5.232;2022-12-07T05:53:18;2.60;99.90
17599;DHT22;8918;52.092;5.232;2022-12-07T05:55:44;2.60;99.90
17599;DHT22;8918;52.092;5.232;2022-12-07T05:58:09;2.60;99.90
17599;DHT22;8918;52.092;5.232;2022-12-07T06:00:57;2.60;99.90
17599;DHT22;8918;52.092;5.232;2022-12-07T06:03:22;2.60;99.90
17599;DHT22;8918;52.092;5.232;2022-12-07T06:05:48;2.60;99.90
17599;DHT22;8918;52.092;5.232;2022-12-07T06:08:14;2.60;99.90
17599;DHT22;8918;52.092;5.232;2022-12-07T06:10:40;2.60;99.90
17599;DHT22;8918;52.092;5.232;2022-12-07T06:13:07;2.60;99.90
17599;DHT22;8918;52.092;5.232;2022-12-07T06:15:35;2.60;99.90
17599;DHT22;8918;52.092;5.232;2022-12-07T06:18:01;2.60;99.90
17599;DHT22;8918;52.092;5.232;2022-12-07T06:20:27;2.50;99.90
17599;DHT22;8918;52.092;5.232;2022-12-07T06:22:52;2.50;99.90
17599;DHT22;8918;52.092;5.232;2022-12-07T06:25:18;2.40;99.90
17599;DHT22;8918;52.092;5.232;2022-12-07T06:27:43;2.40;99.90
17599;DHT22;8918;52.092;5.232;2022-12-07T06:30:09;2.40;99.90
17599;DHT22;8918;52.092;5.232;2022-12-07T06:32:36;2.40;99.90
17599;DHT22;8918;52.092;5.232;2022-12-07T06:35:02;2.50;99.90
17599;DHT22;8918;52.092;5.232;2022-12-07T06:37:28;2.50;99.90
17599;DHT22;8918;52.092;5.232;2022-12-07T06:39:53;2.50;99.90
17599;DHT22;8918;52.092;5.232;2022-12-07T06:42:19;2.60;99.90
17599;DHT22;8918;52.092;5.232;2022-12-07T06:44:44;2.50;99.90
17599;DHT22;8918;52.092;5.232;2022-12-07T06:47:10;2.50;99.90
17599;DHT22;8918;52.092;5.232;2022-12-07T06:49:36;2.50;99.90
17599;DHT22;8918;52.092;5.232;2022-12-07T06:52:02;2.40;99.90
17599;DHT22;8918;52.092;5.232;2022-12-07T06:54:27;2.40;99.90
17599;DHT22;8918;52.092;5.232;2022-12-07T06:56:55;2.40;99.90
17599;DHT22;8918;52.092;5.232;2022-12-07T06:59:21;2.40;99.90
17599;DHT22;8918;52.092;5.232;2022-12-07T07:01:46;2.40;99.90
17599;DHT22;8918;52.092;5.232;2022-12-07T07:04:12;2.40;99.90
17599;DHT22;8918;52.092;5.232;2022-12-07T07:06:38;2.50;99.90
17599;DHT22;8918;52.092;5.232;2022-12-07T07:09:03;2.50;99.90
17599;DHT22;8918;52.092;5.232;2022-12-07T07:11:29;2.50;99.90
17599;DHT22;8918;52.092;5.232;2022-12-07T07:13:54;2.50;99.90
17599;DHT22;8918;52.092;5.232;2022-12-07T07:16:23;2.50;99.90
17599;DHT22;8918;52.092;5.232;2022-12-07T07:18:49;2.50;99.90
17599;DHT22;8918;52.092;5.232;2022-12-07T07:21:15;2.50;99.90
17599;DHT22;8918;52.092;5.232;2022-12-07T07:23:40;2.50;99.90
17599;DHT22;8918;52.092;5.232;2022-12-07T07:26:06;2.60;99.90
17599;DHT22;8918;52.092;5.232;2022-12-07T07:28:32;2.60;99.90
17599;DHT22;8918;52.092;5.232;2022-12-07T07:30:57;2.60;99.90
17599;DHT22;8918;52.092;5.232;2022-12-07T07:33:23;2.50;99.90
17599;DHT22;8918;52.092;5.232;2022-12-07T07:35:48;2.50;99.90
17599;DHT22;8918;52.092;5.232;2022-12-07T07:38:14;2.50;99.90
17599;DHT22;8918;52.092;5.232;2022-12-07T07:40:40;2.40;99.90
17599;DHT22;8918;52.092;5.232;2022-12-07T07:43:05;2.40;99.90
17599;DHT22;8918;52.092;5.232;2022-12-07T07:45:31;2.40;99.90
17599;DHT22;8918;52.092;5.232;2022-12-07T07:47:57;2.40;99.90
17599;DHT22;8918;52.092;5.232;2022-12-07T07:50:22;2.40;99.90
17599;DHT22;8918;52.092;5.232;2022-12-07T07:52:48;2.30;99.90
17599;DHT22;8918;52.092;5.232;2022-12-07T07:55:14;2.30;99.90
17599;DHT22;8918;52.092;5.232;2022-12-07T07:57:40;2.30;99.90
17599;DHT22;8918;52.092;5.232;2022-12-07T08:00:09;2.30;99.90
17599;DHT22;8918;52.092;5.232;2022-12-07T08:02:35;2.30;99.90
17599;DHT22;8918;52.092;5.232;2022-12-07T08:05:01;2.20;99.90
17599;DHT22;8918;52.092;5.232;2022-12-07T08:07:27;2.20;99.90
17599;DHT22;8918;52.092;5.232;2022-12-07T08:09:53;2.20;99.90
17599;DHT22;8918;52.092;5.232;2022-12-07T08:12:19;2.20;99.90
17599;DHT22;8918;52.092;5.232;2022-12-07T08:14:45;2.20;99.90
17599;DHT22;8918;52.092;5.232;2022-12-07T08:17:10;2.20;99.90
17599;DHT22;8918;52.092;5.232;2022-12-07T08:19:36;2.20;99.90
17599;DHT22;8918;52.092;5.232;2022-12-07T08:22:02;2.30;99.90
17599;DHT22;8918;52.092;5.232;2022-12-07T08:24:27;2.30;99.90
17599;DHT22;8918;52.092;5.232;2022-12-07T08:26:53;2.40;99.90
17599;DHT22;8918;52.092;5.232;2022-12-07T08:29:19;2.50;99.90
17599;DHT22;8918;52.092;5.232;2022-12-07T08:31:45;2.70;99.90
17599;DHT22;8918;52.092;5.232;2022-12-07T08:34:11;2.90;99.90
17599;DHT22;8918;52.092;5.232;2022-12-07T08:36:37;3.10;99.90
17599;DHT22;8918;52.092;5.232;2022-12-07T08:39:03;3.30;99.90
17599;DHT22;8918;52.092;5.232;2022-12-07T08:41:29;3.50;99.90
17599;DHT22;8918;52.092;5.232;2022-12-07T08:43:54;3.60;99.90
17599;DHT22;8918;52.092;5.232;2022-12-07T08:46:28;3.70;99.90
17599;DHT22;8918;52.092;5.232;2022-12-07T08:49:22;3.80;99.90
17599;DHT22;8918;52.092;5.232;2022-12-07T08:51:50;3.80;99.90
17599;DHT22;8918;52.092;5.232;2022-12-07T08:54:17;3.90;99.90
17599;DHT22;8918;52.092;5.232;2022-12-07T08:56:44;4.00;99.90
17599;DHT22;8918;52.092;5.232;2022-12-07T08:59:13;4.00;99.90
17599;DHT22;8918;52.092;5.232;2022-12-07T09:01:39;4.00;99.90
17599;DHT22;8918;52.092;5.232;2022-12-07T09:04:05;4.00;99.90
17599;DHT22;8918;52.092;5.232;2022-12-07T09:06:31;4.10;99.90
17599;DHT22;8918;52.092;5.232;2022-12-07T09:08:58;4.10;99.90
17599;DHT22;8918;52.092;5.232;2022-12-07T09:11:25;4.20;99.90
17599;DHT22;8918;52.092;5.232;2022-12-07T09:13:51;4.20;99.90
17599;DHT22;8918;52.092;5.232;2022-12-07T09:16:17;4.30;99.90
17599;DHT22;8918;52.092;5.232;2022-12-07T09:18:42;4.40;99.90
17599;DHT22;8918;52.092;5.232;2022-12-07T09:21:08;4.50;99.90
17599;DHT22;8918;52.092;5.232;2022-12-07T09:23:35;4.50;99.90
17599;DHT22;8918;52.092;5.232;2022-12-07T09:26:01;4.50;99.90
17599;DHT22;8918;52.092;5.232;2022-12-07T09:28:27;4.70;99.90
17599;DHT22;8918;52.092;5.232;2022-12-07T09:30:53;4.90;99.90
17599;DHT22;8918;52.092;5.232;2022-12-07T09:33:19;4.90;99.90
17599;DHT22;8918;52.092;5.232;2022-12-07T09:35:45;4.90;99.90
17599;DHT22;8918;52.092;5.232;2022-12-07T09:38:11;4.80;99.90
17599;DHT22;8918;52.092;5.232;2022-12-07T09:40:37;4.80;99.90
17599;DHT22;8918;52.092;5.232;2022-12-07T09:43:03;4.90;99.90
17599;DHT22;8918;52.092;5.232;2022-12-07T09:45:34;5.40;99.90
17599;DHT22;8918;52.092;5.232;2022-12-07T09:48:03;6.10;99.90
17599;DHT22;8918;52.092;5.232;2022-12-07T09:50:29;6.90;99.90
17599;DHT22;8918;52.092;5.232;2022-12-07T09:53:14;7.30;99.90
17599;DHT22;8918;52.092;5.232;2022-12-07T09:55:41;7.30;99.90
17599;DHT22;8918;52.092;5.232;2022-12-07T09:58:20;6.90;99.90
17599;DHT22;8918;52.092;5.232;2022-12-07T10:00:47;6.50;99.90
17599;DHT22;8918;52.092;5.232;2022-12-07T10:03:13;6.30;99.90
17599;DHT22;8918;52.092;5.232;2022-12-07T10:05:42;6.10;99.90
17599;DHT22;8918;52.092;5.232;2022-12-07T10:08:12;6.00;99.90
17599;DHT22;8918;52.092;5.232;2022-12-07T10:10:39;6.00;99.90
17599;DHT22;8918;52.092;5.232;2022-12-07T10:13:15;6.10;99.90
17599;DHT22;8918;52.092;5.232;2022-12-07T10:15:55;6.10;99.90
17599;DHT22;8918;52.092;5.232;2022-12-07T10:18:37;6.10;99.90
17599;DHT22;8918;52.092;5.232;2022-12-07T10:23:40;6.50;99.90
17599;DHT22;8918;52.092;5.232;2022-12-07T10:28:55;6.50;99.90
17599;DHT22;8918;52.092;5.232;2022-12-07T10:31:22;6.80;99.90
17599;DHT22;8918;52.092;5.232;2022-12-07T10:36:19;8.40;99.90
17599;DHT22;8918;52.092;5.232;2022-12-07T10:38:51;9.80;99.90
17599;DHT22;8918;52.092;5.232;2022-12-07T10:41:16;10.90;99.90
17599;DHT22;8918;52.092;5.232;2022-12-07T10:43:50;11.50;99.90
17599;DHT22;8918;52.092;5.232;2022-12-07T10:56:21;11.90;99.90
17599;DHT22;8918;52.092;5.232;2022-12-07T10:58:27;11.80;99.90
17599;DHT22;8918;52.092;5.232;2022-12-07T11:01:03;10.60;99.90
17599;DHT22;8918;52.092;5.232;2022-12-07T11:03:44;9.40;99.90
17599;DHT22;8918;52.092;5.232;2022-12-07T11:11:53;7.50;99.90
17599;DHT22;8918;52.092;5.232;2022-12-07T11:14:49;7.10;99.90
17599;DHT22;8918;52.092;5.232;2022-12-07T11:20:14;6.80;99.90
17599;DHT22;8918;52.092;5.232;2022-12-07T11:33:28;6.60;99.90
17599;DHT22;8918;52.092;5.232;2022-12-07T11:38:50;6.70;99.90
17599;DHT22;8918;52.092;5.232;2022-12-07T11:41:26;6.90;99.90
17599;DHT22;8918;52.092;5.232;2022-12-07T11:44:04;6.90;99.90
17599;DHT22;8918;52.092;5.232;2022-12-07T11:46:50;7.00;99.90
17599;DHT22;8918;52.092;5.232;2022-12-07T11:49:40;7.10;99.90
17599;DHT22;8918;52.092;5.232;2022-12-07T11:52:18;7.30;99.90
17599;DHT22;8918;52.092;5.232;2022-12-07T11:54:46;7.50;99.90
17599;DHT22;8918;52.092;5.232;2022-12-07T11:57:25;8.10;99.90
17599;DHT22;8918;52.092;5.232;2022-12-07T11:59:59;8.90;99.90
17599;DHT22;8918;52.092;5.232;2022-12-07T12:03:24;9.20;99.90
17599;DHT22;8918;52.092;5.232;2022-12-07T12:05:22;9.30;99.90
17599;DHT22;8918;52.092;5.232;2022-12-07T12:08:16;9.60;99.90
17599;DHT22;8918;52.092;5.232;2022-12-07T12:10:59;9.20;99.90
17599;DHT22;8918;52.092;5.232;2022-12-07T12:14:08;8.90;99.90
17599;DHT22;8918;52.092;5.232;2022-12-07T12:19:34;9.40;99.90
17599;DHT22;8918;52.092;5.232;2022-12-07T12:22:15;9.60;99.90
17599;DHT22;8918;52.092;5.232;2022-12-07T12:24:43;10.00;99.90
17599;DHT22;8918;52.092;5.232;2022-12-07T12:27:32;10.00;99.90
17599;DHT22;8918;52.092;5.232;2022-12-07T12:30:01;10.20;99.90
17599;DHT22;8918;52.092;5.232;2022-12-07T12:35:29;8.70;99.90
17599;DHT22;8918;52.092;5.232;2022-12-07T12:40:47;8.50;99.90
17599;DHT22;8918;52.092;5.232;2022-12-07T12:51:41;7.90;99.90
17599;DHT22;8918;52.092;5.232;2022-12-07T12:57:21;7.40;99.90
17599;DHT22;8918;52.092;5.232;2022-12-07T13:15:45;7.00;99.90
17599;DHT22;8918;52.092;5.232;2022-12-07T13:20:58;7.10;99.90
17599;DHT22;8918;52.092;5.232;2022-12-07T13:31:55;7.50;99.90
17599;DHT22;8918;52.092;5.232;2022-12-07T13:34:41;7.50;99.90
17599;DHT22;8918;52.092;5.232;2022-12-07T13:37:28;7.60;99.90
17599;DHT22;8918;52.092;5.232;2022-12-07T13:39:57;7.70;99.90
17599;DHT22;8918;52.092;5.232;2022-12-07T13:42:31;7.70;99.90
17599;DHT22;8918;52.092;5.232;2022-12-07T13:45:13;7.70;99.90
17599;DHT22;8918;52.092;5.232;2022-12-07T13:48:00;7.60;99.90
17599;DHT22;8918;52.092;5.232;2022-12-07T13:50:32;7.50;99.90
17599;DHT22;8918;52.092;5.232;2022-12-07T13:52:59;7.40;99.90
17599;DHT22;8918;52.092;5.232;2022-12-07T13:55:26;7.30;99.90
17599;DHT22;8918;52.092;5.232;2022-12-07T13:57:53;7.20;99.90
17599;DHT22;8918;52.092;5.232;2022-12-07T14:00:24;7.10;99.90
17599;DHT22;8918;52.092;5.232;2022-12-07T14:03:02;7.00;99.90
17599;DHT22;8918;52.092;5.232;2022-12-07T14:05:33;6.90;99.90
17599;DHT22;8918;52.092;5.232;2022-12-07T14:08:04;6.70;99.90
17599;DHT22;8918;52.092;5.232;2022-12-07T14:10:56;6.70;99.90
17599;DHT22;8918;52.092;5.232;2022-12-07T14:13:36;6.50;99.90
17599;DHT22;8918;52.092;5.232;2022-12-07T14:18:42;6.40;99.90
17599;DHT22;8918;52.092;5.232;2022-12-07T14:23:38;6.40;99.90
17599;DHT22;8918;52.092;5.232;2022-12-07T14:26:14;6.40;99.90
17599;DHT22;8918;52.092;5.232;2022-12-07T14:28:41;6.40;99.90
17599;DHT22;8918;52.092;5.232;2022-12-07T14:31:18;6.30;99.90
17599;DHT22;8918;52.092;5.232;2022-12-07T14:33:46;6.30;99.90
17599;DHT22;8918;52.092;5.232;2022-12-07T14:36:13;6.40;99.90
17599;DHT22;8918;52.092;5.232;2022-12-07T14:38:39;6.30;99.90
17599;DHT22;8918;52.092;5.232;2022-12-07T14:41:09;6.30;99.90
17599;DHT22;8918;52.092;5.232;2022-12-07T14:43:56;6.30;99.90
17599;DHT22;8918;52.092;5.232;2022-12-07T14:46:22;6.30;99.90
17599;DHT22;8918;52.092;5.232;2022-12-07T14:48:47;6.20;99.90
17599;DHT22;8918;52.092;5.232;2022-12-07T14:51:13;6.20;99.90
17599;DHT22;8918;52.092;5.232;2022-12-07T14:53:50;6.20;99.90
17599;DHT22;8918;52.092;5.232;2022-12-07T14:56:17;6.20;99.90
17599;DHT22;8918;52.092;5.232;2022-12-07T14:58:42;6.10;99.90
17599;DHT22;8918;52.092;5.232;2022-12-07T15:01:08;6.10;99.90
17599;DHT22;8918;52.092;5.232;2022-12-07T15:03:34;6.10;99.90
17599;DHT22;8918;52.092;5.232;2022-12-07T15:06:00;6.20;99.90
17599;DHT22;8918;52.092;5.232;2022-12-07T15:08:26;6.20;99.90
17599;DHT22;8918;52.092;5.232;2022-12-07T15:10:52;6.20;99.90
17599;DHT22;8918;52.092;5.232;2022-12-07T15:13:18;6.10;99.90
17599;DHT22;8918;52.092;5.232;2022-12-07T15:16:02;6.00;99.90
17599;DHT22;8918;52.092;5.232;2022-12-07T15:18:28;6.00;99.90
17599;DHT22;8918;52.092;5.232;2022-12-07T15:20:54;6.00;99.90
17599;DHT22;8918;52.092;5.232;2022-12-07T15:23:19;6.00;99.90
17599;DHT22;8918;52.092;5.232;2022-12-07T15:25:47;6.00;99.90
17599;DHT22;8918;52.092;5.232;2022-12-07T15:28:13;5.90;99.90
17599;DHT22;8918;52.092;5.232;2022-12-07T15:30:43;5.90;99.90
17599;DHT22;8918;52.092;5.232;2022-12-07T15:33:09;5.90;99.90
17599;DHT22;8918;52.092;5.232;2022-12-07T15:35:40;5.90;99.90
17599;DHT22;8918;52.092;5.232;2022-12-07T15:38:06;5.90;99.90
17599;DHT22;8918;52.092;5.232;2022-12-07T15:40:32;5.90;99.90
17599;DHT22;8918;52.092;5.232;2022-12-07T15:42:57;5.80;99.90
17599;DHT22;8918;52.092;5.232;2022-12-07T15:45:23;5.70;99.90
17599;DHT22;8918;52.092;5.232;2022-12-07T15:47:49;5.70;99.90
17599;DHT22;8918;52.092;5.232;2022-12-07T15:50:16;5.70;99.90
17599;DHT22;8918;52.092;5.232;2022-12-07T15:52:42;5.70;99.90
17599;DHT22;8918;52.092;5.232;2022-12-07T15:55:09;5.80;99.90
17599;DHT22;8918;52.092;5.232;2022-12-07T15:57:36;5.70;99.90
17599;DHT22;8918;52.092;5.232;2022-12-07T16:00:04;5.60;99.90
17599;DHT22;8918;52.092;5.232;2022-12-07T16:02:30;5.60;99.90
17599;DHT22;8918;52.092;5.232;2022-12-07T16:04:55;5.50;99.90
17599;DHT22;8918;52.092;5.232;2022-12-07T16:07:21;5.40;99.90
17599;DHT22;8918;52.092;5.232;2022-12-07T16:09:47;5.30;99.90
17599;DHT22;8918;52.092;5.232;2022-12-07T16:12:13;5.30;99.90
17599;DHT22;8918;52.092;5.232;2022-12-07T16:14:39;5.30;99.90
17599;DHT22;8918;52.092;5.232;2022-12-07T16:17:06;5.30;99.90
17599;DHT22;8918;52.092;5.232;2022-12-07T16:19:32;5.30;99.90
17599;DHT22;8918;52.092;5.232;2022-12-07T16:21:58;5.20;99.90
17599;DHT22;8918;52.092;5.232;2022-12-07T16:24:24;5.20;99.90
17599;DHT22;8918;52.092;5.232;2022-12-07T16:26:50;5.20;99.90
17599;DHT22;8918;52.092;5.232;2022-12-07T16:29:16;5.20;99.90
17599;DHT22;8918;52.092;5.232;2022-12-07T16:31:42;5.20;99.90
17599;DHT22;8918;52.092;5.232;2022-12-07T16:34:09;5.10;99.90
17599;DHT22;8918;52.092;5.232;2022-12-07T16:36:34;5.10;99.90
17599;DHT22;8918;52.092;5.232;2022-12-07T16:39:00;5.20;99.90
17599;DHT22;8918;52.092;5.232;2022-12-07T16:41:26;5.30;99.90
17599;DHT22;8918;52.092;5.232;2022-12-07T16:43:52;5.30;99.90
17599;DHT22;8918;52.092;5.232;2022-12-07T16:46:17;5.20;99.90
17599;DHT22;8918;52.092;5.232;2022-12-07T16:48:44;5.20;99.90
17599;DHT22;8918;52.092;5.232;2022-12-07T16:51:11;5.10;99.90
17599;DHT22;8918;52.092;5.232;2022-12-07T16:53:40;5.10;99.90
17599;DHT22;8918;52.092;5.232;2022-12-07T16:56:14;5.00;99.90
17599;DHT22;8918;52.092;5.232;2022-12-07T16:58:44;5.10;99.90
17599;DHT22;8918;52.092;5.232;2022-12-07T17:01:14;5.10;99.90
17599;DHT22;8918;52.092;5.232;2022-12-07T17:03:40;5.20;99.90
17599;DHT22;8918;52.092;5.232;2022-12-07T17:06:15;5.20;99.90
17599;DHT22;8918;52.092;5.232;2022-12-07T17:08:41;5.20;99.90
17599;DHT22;8918;52.092;5.232;2022-12-07T17:11:12;5.20;99.90
17599;DHT22;8918;52.092;5.232;2022-12-07T17:13:38;5.10;99.90
17599;DHT22;8918;52.092;5.232;2022-12-07T17:16:22;5.10;99.90
17599;DHT22;8918;52.092;5.232;2022-12-07T17:18:47;5.00;99.90
17599;DHT22;8918;52.092;5.232;2022-12-07T17:21:13;5.00;99.90
17599;DHT22;8918;52.092;5.232;2022-12-07T17:23:38;5.00;99.90
17599;DHT22;8918;52.092;5.232;2022-12-07T17:26:09;5.10;99.90
17599;DHT22;8918;52.092;5.232;2022-12-07T17:28:36;5.10;99.90
17599;DHT22;8918;52.092;5.232;2022-12-07T17:31:05;5.00;99.90
17599;DHT22;8918;52.092;5.232;2022-12-07T17:33:32;5.00;99.90
17599;DHT22;8918;52.092;5.232;2022-12-07T17:35:58;5.00;99.90
17599;DHT22;8918;52.092;5.232;2022-12-07T17:38:24;5.10;99.90
17599;DHT22;8918;52.092;5.232;2022-12-07T17:40:49;5.00;99.90
17599;DHT22;8918;52.092;5.232;2022-12-07T17:43:15;5.00;99.90
17599;DHT22;8918;52.092;5.232;2022-12-07T17:45:41;4.90;99.90
17599;DHT22;8918;52.092;5.232;2022-12-07T17:48:06;4.90;99.90
17599;DHT22;8918;52.092;5.232;2022-12-07T17:50:32;4.90;99.90
17599;DHT22;8918;52.092;5.232;2022-12-07T17:53:18;4.90;99.90
17599;DHT22;8918;52.092;5.232;2022-12-07T17:55:43;4.80;99.90
17599;DHT22;8918;52.092;5.232;2022-12-07T17:58:09;4.80;99.90
17599;DHT22;8918;52.092;5.232;2022-12-07T18:00:35;4.80;99.90
17599;DHT22;8918;52.092;5.232;2022-12-07T18:03:05;4.80;99.90
17599;DHT22;8918;52.092;5.232;2022-12-07T18:05:35;4.90;99.90
17599;DHT22;8918;52.092;5.232;2022-12-07T18:08:01;4.80;99.90
17599;DHT22;8918;52.092;5.232;2022-12-07T18:10:27;4.80;99.90
17599;DHT22;8918;52.092;5.232;2022-12-07T18:12:53;4.70;99.90
17599;DHT22;8918;52.092;5.232;2022-12-07T18:15:39;4.70;99.90